< Typhoon 197321 1974 Season Typhoon 197402 >
Typhoon 197401 (WANDA)
General InformationTrack Information on Google Maps || Disaster Info.ResourceGoogle EarthGE AnimationAtom FeedGeoJSON
Detalied Best Track (Time Zone = UTC)
Year Month Day Hour Lat. Long. Pressure (hPa) Wind (kt) Class Image Chart
1974 1 8 06 7.0 132.0 1000 0 2 -- Chart
1974 1 8 12 7.4 131.9 1000 0 2 -- Chart
1974 1 8 18 7.9 131.8 1000 0 2 -- Chart
1974 1 9 00 8.3 131.9 1000 0 2 -- Chart
1974 1 9 06 8.8 132.0 998 0 2 -- Chart
1974 1 9 12 9.2 132.0 998 0 2 -- Chart
1974 1 9 18 9.5 131.9 998 0 2 -- Chart
1974 1 10 00 9.9 131.9 996 0 9 -- Chart
1974 1 10 06 10.5 131.7 992 0 9 -- Chart
1974 1 10 12 11.2 131.6 992 0 9 -- Chart
1974 1 10 18 11.9 132.0 994 0 9 -- Chart
1974 1 11 00 12.3 132.9 994 0 9 -- Chart
1974 1 11 06 12.6 134.4 994 0 9 -- Chart
1974 1 11 12 12.3 135.5 994 0 9 -- Chart
1974 1 11 18 12.3 137.0 998 0 9 -- Chart
1974 1 12 00 13.6 138.0 1000 0 9 -- Chart
1974 1 12 06 14.2 138.8 996 0 9 -- Chart
1974 1 12 12 14.8 140.0 996 0 9 -- Chart
1974 1 12 18 14.8 141.3 996 0 9 -- Chart
1974 1 13 00 14.8 142.7 996 0 9 -- Chart
1974 1 13 06 15.2 143.3 1000 0 9 -- Chart
1974 1 13 12 15.0 147.0 1002 0 2 -- Chart
1974 1 13 18 15.5 149.5 1002 0 2 -- Chart
1974 1 14 00 17.0 151.7 1004 0 6 -- Chart
1974 1 14 06 18.8 154.0 1004 0 6 -- Chart
1974 1 14 12 19.9 157.0 1004 0 6 -- Chart
1974 1 14 18 19.9 160.0 1004 0 6 -- Chart
Japan Meteorological Agency Best Track Data | Correction Date : 1989-06-01
< Typhoon 197321 1974 Season Typhoon 197402 >

Help